Joy, North Carolina
Current Conditions -  °F | °C
As of 8:35 PM on Friday 24 Oct 2014 (Local Time) from KMRN Reporting Station
Clear Clear  
Wind Chill: 45°   Ceiling: Unl
Heat Index: 45°   Visibility: 10mi
Dew Point: 45°   Wind: 3mph
Humidity: 98%   Direction: 350°N
Pressure: 30.07"   Gusts: NA
Location:  35.7567°N, 81.7518°W
Report Text: KMRN 250035Z AUTO 35003KT 10SM CLR 07/07 A3007 RMK AO2 T00740071
Loading
Personal Weather Stations






























Interactive Weather Map
Tropical Storm Tracking
New forecast layout! Learn more

10-Day Weather Forecast

Advertisements
Track Severe Weather on mobile